createdAt,value
2022-07-30T00:01:29.403Z,100267.81
2022-07-30T00:04:32.873Z,100267.03
2022-07-30T00:07:36.960Z,100278.84
2022-07-30T00:10:40.636Z,100280.38
2022-07-30T00:13:43.617Z,100281.06
2022-07-30T00:16:46.353Z,100277.97
2022-07-30T00:19:50.045Z,100272.53
2022-07-30T00:22:55.122Z,100282.19
2022-07-30T00:25:57.816Z,100285.34
2022-07-30T00:29:00.564Z,100275.06
2022-07-30T00:32:03.274Z,100269.94
2022-07-30T00:35:07.255Z,100263.47
2022-07-30T00:38:11.315Z,100263.38
2022-07-30T00:41:15.455Z,100274.22
2022-07-30T00:44:18.489Z,100275.19
2022-07-30T00:47:22.546Z,100272.31
2022-07-30T00:50:25.286Z,100271.47
2022-07-30T00:53:29.318Z,100267.97
2022-07-30T00:56:32.712Z,100272.47
2022-07-30T00:59:36.052Z,100260.31
2022-07-30T01:02:38.854Z,100264.66
2022-07-30T01:05:42.702Z,100263.47
2022-07-30T01:08:47.348Z,100260.31
2022-07-30T01:11:50.228Z,100264.47
2022-07-30T01:14:55.179Z,100262.75
2022-07-30T01:18:01.038Z,100263.38
2022-07-30T01:21:10.651Z,100254.41
2022-07-30T01:24:24.199Z,100245.22
2022-07-30T01:27:31.087Z,100246.19
2022-07-30T01:30:36.759Z,100243.47
2022-07-30T01:33:44.721Z,100240.00
2022-07-30T01:36:48.425Z,100244.00
2022-07-30T01:39:53.141Z,100245.13
2022-07-30T01:42:59.959Z,100240.63
2022-07-30T01:46:04.625Z,100243.38
2022-07-30T01:49:09.371Z,100244.00
2022-07-30T01:52:13.210Z,100237.47
2022-07-30T01:55:19.559Z,100233.31
2022-07-30T01:58:27.527Z,100239.09
2022-07-30T02:01:30.337Z,100237.13
2022-07-30T02:04:33.301Z,100250.69
2022-07-30T02:07:42.323Z,100251.78
2022-07-30T02:10:50.718Z,100255.72
2022-07-30T02:13:58.136Z,100253.94
2022-07-30T02:17:04.116Z,100266.06
2022-07-30T02:20:10.578Z,100267.38
2022-07-30T02:23:17.207Z,100262.22
2022-07-30T02:26:23.901Z,100269.97
2022-07-30T02:29:34.071Z,100276.75
2022-07-30T02:32:40.423Z,100276.13
2022-07-30T02:35:50.716Z,100276.38
2022-07-30T02:38:54.348Z,100285.25
2022-07-30T02:41:57.975Z,100274.53
2022-07-30T02:45:03.228Z,100285.00
2022-07-30T02:48:08.739Z,100283.94
2022-07-30T02:51:13.425Z,100287.22
2022-07-30T02:54:18.885Z,100298.03
2022-07-30T02:57:22.436Z,100291.81
2022-07-30T03:00:28.155Z,100307.22
2022-07-30T03:03:32.166Z,100304.72
2022-07-30T03:06:37.121Z,100307.56
2022-07-30T03:09:52.346Z,100313.00
2022-07-30T03:12:57.444Z,100308.84
2022-07-30T03:16:04.630Z,100313.75
2022-07-30T03:19:10.580Z,100309.69
2022-07-30T03:22:15.678Z,100322.56
2022-07-30T03:25:23.537Z,100323.09
2022-07-30T03:28:27.814Z,100321.66
2022-07-30T03:31:36.524Z,100325.53
2022-07-30T03:34:42.508Z,100329.03
2022-07-30T03:37:47.559Z,100327.13
2022-07-30T03:40:51.249Z,100333.25
2022-07-30T03:43:54.876Z,100330.84
2022-07-30T03:47:01.189Z,100335.50
2022-07-30T03:50:04.493Z,100338.22
2022-07-30T03:53:09.270Z,100332.84
2022-07-30T03:56:13.659Z,100332.75
2022-07-30T03:59:17.115Z,100353.25
2022-07-30T04:02:21.527Z,100348.34
2022-07-30T04:05:24.606Z,100350.53
2022-07-30T04:08:28.811Z,100351.91
2022-07-30T04:11:40.628Z,100350.50
2022-07-30T04:14:46.891Z,100353.69
2022-07-30T04:17:56.061Z,100349.88
2022-07-30T04:21:01.540Z,100362.25
2022-07-30T04:24:05.904Z,100360.28
2022-07-30T04:27:08.869Z,100371.00
2022-07-30T04:30:12.737Z,100371.00
2022-07-30T04:33:18.243Z,100371.78
2022-07-30T04:36:20.981Z,100373.44
2022-07-30T04:39:23.695Z,100371.56
2022-07-30T04:42:27.281Z,100374.06
2022-07-30T04:45:29.987Z,100377.69
2022-07-30T04:48:34.191Z,100382.19
2022-07-30T04:51:39.343Z,100384.81
2022-07-30T04:54:45.703Z,100390.94
2022-07-30T04:57:50.835Z,100384.38
2022-07-30T05:00:56.711Z,100384.38
2022-07-30T05:04:02.870Z,100387.88
2022-07-30T05:07:07.876Z,100381.63
2022-07-30T05:10:12.153Z,100388.00
2022-07-30T05:13:16.679Z,100389.66
2022-07-30T05:16:19.630Z,100387.69
2022-07-30T05:19:25.584Z,100402.53
2022-07-30T05:22:30.670Z,100390.44
2022-07-30T05:25:33.403Z,100393.59
2022-07-30T05:28:36.317Z,100394.16
2022-07-30T05:31:40.390Z,100386.38
2022-07-30T05:34:44.663Z,100394.53
2022-07-30T05:37:53.343Z,100392.56
2022-07-30T05:40:56.143Z,100392.91
2022-07-30T05:43:58.871Z,100396.69
2022-07-30T05:47:02.205Z,100394.50
2022-07-30T05:50:07.668Z,100392.50
2022-07-30T05:53:10.481Z,100393.56
2022-07-30T05:56:13.295Z,100395.75
2022-07-30T05:59:16.011Z,100395.53
2022-07-30T06:02:18.712Z,100402.31
2022-07-30T06:05:23.392Z,100404.31
2022-07-30T06:08:26.050Z,100398.16
2022-07-30T06:11:28.772Z,100405.59
2022-07-30T06:14:32.101Z,100410.66
2022-07-30T06:17:41.236Z,100405.66
2022-07-30T06:20:46.418Z,100416.38
2022-07-30T06:23:49.529Z,100419.53
2022-07-30T06:26:52.265Z,100422.75
2022-07-30T06:29:55.719Z,100425.78
2022-07-30T06:32:58.392Z,100420.47
2022-07-30T06:36:02.632Z,100419.69
2022-07-30T06:39:05.550Z,100426.13
2022-07-30T06:42:08.436Z,100430.88
2022-07-30T06:45:12.169Z,100427.31
2022-07-30T06:48:14.843Z,100432.88
2022-07-30T06:51:19.120Z,100432.91
2022-07-30T06:54:22.142Z,100433.31
2022-07-30T06:57:24.784Z,100430.50
2022-07-30T07:00:27.702Z,100437.03
2022-07-30T07:03:39.749Z,100429.88
2022-07-30T07:06:44.739Z,100433.13
2022-07-30T07:09:47.395Z,100430.66
2022-07-30T07:12:50.072Z,100424.75
2022-07-30T07:15:52.751Z,100418.41
2022-07-30T07:18:57.053Z,100418.75
2022-07-30T07:22:01.046Z,100419.09
2022-07-30T07:25:04.133Z,100421.13
2022-07-30T07:28:11.130Z,100423.78
2022-07-30T07:32:06.327Z,100425.59
2022-07-30T07:34:38.714Z,100415.03
2022-07-30T07:37:42.735Z,100416.28
2022-07-30T07:40:45.815Z,100411.81
2022-07-30T07:43:48.576Z,100412.47
2022-07-30T07:46:51.418Z,100404.72
2022-07-30T07:49:56.473Z,100405.72
2022-07-30T07:53:00.707Z,100407.38
2022-07-30T07:56:03.641Z,100405.44
2022-07-30T07:59:06.940Z,100408.16
2022-07-30T08:02:11.060Z,100403.03
2022-07-30T08:05:14.006Z,100402.53
2022-07-30T08:08:18.074Z,100403.41
2022-07-30T08:11:20.856Z,100409.75
2022-07-30T08:14:23.527Z,100407.78
2022-07-30T08:17:26.616Z,100416.31
2022-07-30T08:20:33.295Z,100419.41
2022-07-30T08:23:42.153Z,100415.50
2022-07-30T08:26:45.383Z,100426.28
2022-07-30T08:29:48.125Z,100420.13
2022-07-30T08:32:50.946Z,100422.44
2022-07-30T08:35:57.235Z,100423.41
2022-07-30T08:39:06.998Z,100425.03
2022-07-30T08:42:10.011Z,100427.66
2022-07-30T08:45:13.945Z,100416.38
2022-07-30T08:48:19.714Z,100423.94
2022-07-30T08:51:24.068Z,100420.50
2022-07-30T08:54:28.259Z,100419.38
2022-07-30T08:57:31.585Z,100415.97
2022-07-30T09:00:34.518Z,100415.25
2022-07-30T09:03:44.168Z,100411.25
2022-07-30T09:06:47.283Z,100415.19
2022-07-30T09:09:52.390Z,100420.31
2022-07-30T09:12:55.018Z,100408.69
2022-07-30T09:15:58.603Z,100416.94
2022-07-30T09:19:13.104Z,100416.81
2022-07-30T09:22:17.257Z,100414.94
2022-07-30T09:25:41.260Z,100413.91
2022-07-30T09:28:44.081Z,100408.06
2022-07-30T09:31:57.940Z,100403.06
2022-07-30T09:35:13.172Z,100404.81
2022-07-30T09:38:15.835Z,100415.03
2022-07-30T09:41:38.301Z,100409.50
2022-07-30T09:44:41.934Z,100403.19
2022-07-30T09:47:48.324Z,100398.56
2022-07-30T09:50:52.341Z,100398.28
2022-07-30T09:53:57.049Z,100406.97
2022-07-30T09:57:22.709Z,100395.78
2022-07-30T10:00:31.673Z,100399.22
2022-07-30T10:03:42.024Z,100406.19
2022-07-30T10:06:45.619Z,100399.94
2022-07-30T10:09:50.084Z,100406.03
2022-07-30T10:13:00.917Z,100399.66
2022-07-30T10:16:04.328Z,100391.78
2022-07-30T10:19:13.808Z,100403.72
2022-07-30T10:22:21.592Z,100385.09
2022-07-30T10:25:28.084Z,100373.41
2022-07-30T10:28:37.024Z,100375.66
2022-07-30T10:31:47.336Z,100355.53
2022-07-30T10:34:52.655Z,100367.13
2022-07-30T10:37:58.812Z,100361.06
2022-07-30T10:41:08.693Z,100352.22
2022-07-30T10:44:42.245Z,100349.72
2022-07-30T10:47:48.820Z,100357.44
2022-07-30T10:50:54.950Z,100344.47
2022-07-30T10:53:59.409Z,100352.94
2022-07-30T10:57:07.586Z,100348.88
2022-07-30T11:00:17.752Z,100343.16
2022-07-30T11:03:23.609Z,100334.19
2022-07-30T11:06:44.017Z,100343.38
2022-07-30T11:09:57.974Z,100333.38
2022-07-30T11:13:09.805Z,100330.19
2022-07-30T11:16:13.985Z,100331.22
2022-07-30T11:19:54.975Z,100319.63
2022-07-30T11:22:44.704Z,100333.09
2022-07-30T11:25:50.317Z,100337.78
2022-07-30T11:28:55.016Z,100329.59
2022-07-30T11:32:00.944Z,100329.25
2022-07-30T11:35:18.876Z,100322.84
2022-07-30T11:38:22.255Z,100314.53
2022-07-30T11:41:25.925Z,100315.69
2022-07-30T11:44:30.568Z,100316.88
2022-07-30T11:47:35.597Z,100319.47
2022-07-30T11:50:39.103Z,100300.63
2022-07-30T11:53:42.441Z,100299.81
2022-07-30T11:56:52.853Z,100299.38
2022-07-30T11:59:56.974Z,100304.28
2022-07-30T12:03:03.984Z,100309.06
2022-07-30T12:06:09.357Z,100310.84
2022-07-30T12:09:13.001Z,100309.13
2022-07-30T12:12:23.721Z,100306.81
2022-07-30T12:15:31.686Z,100295.56
2022-07-30T12:18:36.224Z,100300.19
2022-07-30T12:21:39.190Z,100301.88
2022-07-30T12:24:42.923Z,100306.41
2022-07-30T12:27:51.820Z,100309.47
2022-07-30T12:30:56.881Z,100299.72
2022-07-30T12:34:01.432Z,100298.69
2022-07-30T12:37:11.114Z,100292.13
2022-07-30T12:40:16.647Z,100289.25
2022-07-30T12:43:20.100Z,100294.50
2022-07-30T12:46:24.313Z,100288.47
2022-07-30T12:49:36.542Z,100298.78
2022-07-30T12:52:49.086Z,100286.47
2022-07-30T12:55:51.998Z,100285.66
2022-07-30T12:58:56.927Z,100289.13
2022-07-30T13:02:00.529Z,100277.31
2022-07-30T13:05:11.702Z,100277.34
2022-07-30T13:08:14.922Z,100270.41
2022-07-30T13:11:19.136Z,100269.19
2022-07-30T13:14:24.669Z,100270.41
2022-07-30T13:17:29.921Z,100270.59
2022-07-30T13:20:34.637Z,100262.25
2022-07-30T13:23:38.814Z,100257.56
2022-07-30T13:26:41.569Z,100263.44
2022-07-30T13:29:44.227Z,100246.94
2022-07-30T13:32:47.095Z,100252.19
2022-07-30T13:35:51.502Z,100246.94
2022-07-30T13:38:54.115Z,100254.25
2022-07-30T13:41:56.800Z,100246.63
2022-07-30T13:44:59.460Z,100246.41
2022-07-30T13:48:02.465Z,100252.88
2022-07-30T13:51:08.075Z,100252.00
2022-07-30T13:54:10.771Z,100239.50
2022-07-30T13:57:16.933Z,100239.31
2022-07-30T14:00:19.929Z,100228.03
2022-07-30T14:03:22.972Z,100214.31
2022-07-30T14:06:27.168Z,100226.13
2022-07-30T14:09:30.040Z,100232.38
2022-07-30T14:12:33.049Z,100230.25
2022-07-30T14:15:35.969Z,100228.72
2022-07-30T14:18:38.850Z,100230.28
2022-07-30T14:21:42.930Z,100223.66
2022-07-30T14:24:48.762Z,100238.75
2022-07-30T14:27:51.437Z,100220.31
2022-07-30T14:30:54.930Z,100220.66
2022-07-30T14:33:57.695Z,100214.00
2022-07-30T14:37:02.004Z,100217.63
2022-07-30T14:40:08.343Z,100214.44
2022-07-30T14:43:11.127Z,100210.47
2022-07-30T14:46:14.159Z,100220.38
2022-07-30T14:49:17.240Z,100220.59
2022-07-30T14:52:21.525Z,100212.78
2022-07-30T14:55:24.497Z,100210.09
2022-07-30T14:58:27.427Z,100212.91
2022-07-30T15:01:30.715Z,100225.75
2022-07-30T15:04:33.650Z,100222.47
2022-07-30T15:07:40.300Z,100223.16
2022-07-30T15:10:43.366Z,100222.28
2022-07-30T15:13:50.051Z,100203.34
2022-07-30T15:16:53.410Z,100210.16
2022-07-30T15:19:56.111Z,100213.56
2022-07-30T15:23:00.193Z,100221.94
2022-07-30T15:26:03.397Z,100214.84
2022-07-30T15:29:11.654Z,100220.53
2022-07-30T15:32:17.329Z,100218.41
2022-07-30T15:35:20.201Z,100224.56
2022-07-30T15:38:24.577Z,100208.25
2022-07-30T15:41:27.358Z,100222.66
2022-07-30T15:44:30.369Z,100197.81
2022-07-30T15:47:33.300Z,100230.41
2022-07-30T15:50:36.129Z,100228.75
2022-07-30T15:53:40.281Z,100226.16
2022-07-30T15:56:44.037Z,100231.03
2022-07-30T15:59:46.950Z,100233.50
2022-07-30T16:02:50.953Z,100229.91
2022-07-30T16:05:53.608Z,100226.41
2022-07-30T16:08:58.124Z,100237.25
2022-07-30T16:12:02.072Z,100240.88
2022-07-30T16:15:08.417Z,100229.47
2022-07-30T16:18:11.502Z,100233.69
2022-07-30T16:21:14.305Z,100234.44
2022-07-30T16:24:19.022Z,100233.91
2022-07-30T16:27:22.193Z,100238.97
2022-07-30T16:30:27.315Z,100240.88
2022-07-30T16:33:30.648Z,100249.56
2022-07-30T16:36:33.920Z,100258.06
2022-07-30T16:39:38.169Z,100247.31
2022-07-30T16:42:41.289Z,100243.31
2022-07-30T16:45:44.710Z,100243.84
2022-07-30T16:48:47.722Z,100253.91
2022-07-30T16:51:54.220Z,100255.28
2022-07-30T16:54:58.429Z,100246.97
2022-07-30T16:58:01.615Z,100239.84
2022-07-30T17:01:04.963Z,100253.22
2022-07-30T17:04:07.869Z,100255.66
2022-07-30T17:07:10.678Z,100259.28
2022-07-30T17:10:14.937Z,100253.00
2022-07-30T17:13:28.785Z,100251.41
2022-07-30T17:16:32.628Z,100256.78
2022-07-30T17:19:35.557Z,100262.13
2022-07-30T17:22:42.853Z,100262.47
2022-07-30T17:25:47.161Z,100262.81
2022-07-30T17:28:49.979Z,100261.41
2022-07-30T17:31:52.698Z,100270.56
2022-07-30T17:34:58.452Z,100260.47
2022-07-30T17:38:01.084Z,100274.28
2022-07-30T17:41:05.428Z,100262.63
2022-07-30T17:44:08.722Z,100282.13
2022-07-30T17:47:14.696Z,100280.63
2022-07-30T17:50:18.911Z,100290.09
2022-07-30T17:53:21.653Z,100293.75
2022-07-30T17:56:26.944Z,100297.78
2022-07-30T17:59:30.090Z,100310.94
2022-07-30T18:02:33.199Z,100304.63
2022-07-30T18:05:35.964Z,100311.19
2022-07-30T18:08:38.684Z,100314.78
2022-07-30T18:11:42.965Z,100314.25
2022-07-30T18:14:45.674Z,100325.06
2022-07-30T18:17:48.515Z,100327.75
2022-07-30T18:20:51.435Z,100332.31
2022-07-30T18:23:54.086Z,100336.97
2022-07-30T18:26:59.608Z,100331.06
2022-07-30T18:30:03.076Z,100336.28
2022-07-30T18:33:09.161Z,100343.53
2022-07-30T18:36:12.041Z,100345.88
2022-07-30T18:39:14.680Z,100341.69
2022-07-30T18:42:18.725Z,100352.84
2022-07-30T18:45:22.720Z,100346.63
2022-07-30T18:48:26.255Z,100356.63
2022-07-30T18:51:28.919Z,100364.16
2022-07-30T18:54:32.075Z,100358.88
2022-07-30T18:57:36.298Z,100368.31
2022-07-30T19:00:42.790Z,100359.69
2022-07-30T19:03:45.617Z,100374.94
2022-07-30T19:06:48.364Z,100367.88
2022-07-30T19:09:55.286Z,100374.84
2022-07-30T19:12:59.771Z,100385.94
2022-07-30T19:16:02.476Z,100382.00
2022-07-30T19:19:05.350Z,100387.44
2022-07-30T19:22:08.313Z,100400.63
2022-07-30T19:25:11.810Z,100400.81
2022-07-30T19:28:17.765Z,100406.53
2022-07-30T19:31:20.959Z,100414.72
2022-07-30T19:34:23.736Z,100415.66
2022-07-30T19:37:26.487Z,100431.81
2022-07-30T19:40:29.277Z,100438.72
2022-07-30T19:43:35.212Z,100445.66
2022-07-30T19:46:41.342Z,100446.16
2022-07-30T19:49:44.286Z,100445.69
2022-07-30T19:52:50.942Z,100440.78
2022-07-30T19:55:54.572Z,100450.56
2022-07-30T19:59:00.239Z,100453.97
2022-07-30T20:02:03.641Z,100453.72
2022-07-30T20:05:11.073Z,100462.09
2022-07-30T20:08:15.307Z,100468.25
2022-07-30T20:11:21.364Z,100470.63
2022-07-30T20:14:43.243Z,100485.91
2022-07-30T20:17:47.053Z,100489.13
2022-07-30T20:20:49.818Z,100494.25
2022-07-30T20:23:54.529Z,100496.63
2022-07-30T20:26:57.623Z,100507.84
2022-07-30T20:30:01.716Z,100517.59
2022-07-30T20:33:04.614Z,100521.53
2022-07-30T20:36:09.756Z,100508.75
2022-07-30T20:39:13.541Z,100507.97
2022-07-30T20:42:21.920Z,100520.94
2022-07-30T20:45:38.038Z,100518.97
2022-07-30T20:48:43.262Z,100515.22
2022-07-30T20:51:50.443Z,100518.72
2022-07-30T20:54:53.186Z,100529.81
2022-07-30T20:58:07.946Z,100523.69
2022-07-30T21:01:18.860Z,100521.94
2022-07-30T21:04:23.891Z,100522.44
2022-07-30T21:07:36.516Z,100517.69
2022-07-30T21:10:40.977Z,100516.81
2022-07-30T21:13:48.049Z,100513.31
2022-07-30T21:16:55.988Z,100517.28
2022-07-30T21:19:59.676Z,100513.78
2022-07-30T21:23:05.435Z,100511.28
2022-07-30T21:26:13.453Z,100518.75
2022-07-30T21:29:17.719Z,100514.09
2022-07-30T21:32:22.295Z,100518.56
2022-07-30T21:35:31.755Z,100520.91
2022-07-30T21:38:35.414Z,100514.78
2022-07-30T21:41:40.925Z,100518.50
2022-07-30T21:44:43.741Z,100524.31
2022-07-30T21:47:50.880Z,100519.59
2022-07-30T21:50:55.503Z,100523.75
2022-07-30T21:53:58.268Z,100529.03
2022-07-30T21:57:01.662Z,100530.56
2022-07-30T22:00:10.022Z,100532.28
2022-07-30T22:04:02.885Z,100542.28
2022-07-30T22:06:39.834Z,100531.97
2022-07-30T22:09:42.635Z,100540.97
2022-07-30T22:12:45.333Z,100535.59
2022-07-30T22:15:48.193Z,100540.81
2022-07-30T22:18:53.182Z,100532.72
2022-07-30T22:21:55.948Z,100532.84
2022-07-30T22:25:00.076Z,100541.94
2022-07-30T22:28:03.501Z,100543.72
2022-07-30T22:31:10.016Z,100546.56
2022-07-30T22:34:18.329Z,100544.91
2022-07-30T22:37:22.339Z,100553.38
2022-07-30T22:40:25.237Z,100547.03
2022-07-30T22:46:56.140Z,100542.94
2022-07-30T22:50:01.547Z,100543.09
2022-07-30T22:53:23.711Z,100535.44
2022-07-30T22:56:27.678Z,100543.69
2022-07-30T22:59:59.835Z,100538.31
2022-07-30T23:02:53.492Z,100540.16
2022-07-30T23:06:00.455Z,100541.16
2022-07-30T23:09:03.992Z,100539.41
2022-07-30T23:12:07.600Z,100533.03
2022-07-30T23:12:32.684Z,100547.25
2022-07-30T23:15:11.534Z,100540.63
2022-07-30T23:18:15.855Z,100543.38
2022-07-30T23:21:20.904Z,100539.63
2022-07-30T23:24:23.592Z,100532.41
2022-07-30T23:27:26.720Z,100532.41
2022-07-30T23:30:30.010Z,100530.66
2022-07-30T23:33:36.735Z,100528.91
2022-07-30T23:36:40.740Z,100522.63
2022-07-30T23:39:43.869Z,100527.34
2022-07-30T23:42:47.269Z,100526.84
2022-07-30T23:45:50.214Z,100534.41
2022-07-30T23:48:53.406Z,100532.03
2022-07-30T23:51:57.568Z,100530.72
2022-07-30T23:55:01.388Z,100517.19
2022-07-30T23:58:06.015Z,100519.25
